Notice: Undefined index: language in /storage/ssd5/510/10272510/public_html/vam1/vam/index.php on line 25
Brand Clickair VA

 METAR AND TAF INFORMATION
METAR FOR HEMA
ADDS - METARS form results

(0252 UTC 26 September 2020)
Data provider http://aviationweather.gov/metar/data/
 
Forecast for: HEMA (MARSA ALAM INTL , EG)
Text: TAF HEMA 252300Z 2600/2706 31010G22KT CAVOK
Forecast period: 0000 UTC 26 September 2020 to 0600 UTC 27 September 2020
Forecast type: FROM: standard forecast or significant change
Winds: from the NW (310 degrees) at 12 MPH (10 knots; 5.1 m/s)
gusting to 25 MPH (22 knots; 11.3 m/s)
Visibility: 6 or more miles (10+ km)
Ceiling: unknown
Clouds: missing
Weather: NSW  (no significant weather)

 AIRPORT MAP

 RUNWAY INFORMATION
Runway 15 Runway length 9843 ft Runway width 148 ft
Runway elevation 247 ft Runway displaced threshold 0 ft Runway heading 150
Runway 33 Runway length 9843 ft Runway width 148 ft
Runway elevation 233 ft Runway displaced threshold 0 ft Runway heading 330

 AIRPORT FREQUENCIES
Type APP Name APP Frequency 121 MHZ
Type EMR Name FIRE Frequency 121.9 MHZ
Type GND Name GND Frequency 121.9 MHZ
Type TWR Name TWR Frequency 121 MHZ

 AIRPORT NEAR NAVIGATION AIDS
Type VOR-DME Name Marsa Alam Frequency 115500 KHZ



Powered by Virtual Airlines Manager [v2.6.2]